Time;durP1;ratioP1;P1;durP2;ratioP2;P2;SDS_P1;SDS_P2;PMS_P1;PMS_P2;Temp;Humidity;BMP_temperature;BMP_pressure;BME280_temperature;BME280_humidity;BME280_pressure;Samples;Min_cycle;Max_cycle;Signal;HPM_P1;HPM_P2
2022/07/22 00:01:54;;;;;;;6.80;5.13;;;;;;;22.72;51.60;94941.63;5117245;28;20207;-69
2022/07/22 00:04:21;;;;;;;5.10;4.60;;;;;;;22.65;51.47;94936.94;5116316;28;20208;-69
2022/07/22 00:06:48;;;;;;;6.57;4.28;;;;;;;22.60;51.71;94940.28;5115438;28;20202;-69
2022/07/22 00:09:15;;;;;;;5.47;4.63;;;;;;;22.52;51.88;94938.84;5116521;28;20183;-69
2022/07/22 00:11:43;;;;;;;5.07;4.57;;;;;;;22.48;51.87;94940.94;5116481;28;20203;-69
2022/07/22 00:14:10;;;;;;;5.97;4.82;;;;;;;22.41;51.68;94947.50;5116222;28;20206;-69
2022/07/22 00:16:36;;;;;;;5.85;4.70;;;;;;;22.38;51.88;94948.38;5115871;28;20195;-69
2022/07/22 00:19:03;;;;;;;5.65;5.07;;;;;;;22.37;51.46;94948.78;5115871;28;20175;-69
2022/07/22 00:21:30;;;;;;;6.90;4.93;;;;;;;22.34;51.47;94944.84;5115530;28;20192;-69
2022/07/22 00:23:57;;;;;;;6.40;4.55;;;;;;;22.32;51.17;94942.44;5115525;28;20540;-69
2022/07/22 00:26:24;;;;;;;5.05;4.55;;;;;;;22.27;51.49;94950.59;5116260;28;20183;-70
2022/07/22 00:28:53;;;;;;;10.30;4.60;;;;;;;22.26;51.68;94952.63;5114713;28;20201;-70
2022/07/22 00:31:19;;;;;;;5.05;4.55;;;;;;;22.27;52.06;94947.78;5115137;28;20203;-70
2022/07/22 00:33:46;;;;;;;5.95;4.88;;;;;;;22.27;51.90;94948.56;5115610;28;20195;-69
2022/07/22 00:36:13;;;;;;;6.85;5.35;;;;;;;22.22;51.67;94951.91;5115278;28;20196;-70
2022/07/22 00:38:40;;;;;;;5.50;5.00;;;;;;;22.20;51.79;94956.34;5115076;28;20199;-70
2022/07/22 00:41:07;;;;;;;5.70;5.20;;;;;;;22.16;51.94;94955.63;5116594;28;20202;-70
2022/07/22 00:43:55;;;;;;;6.93;5.65;;;;;;;22.16;52.27;94950.81;5114732;28;20215;-70
2022/07/22 00:46:22;;;;;;;5.78;5.10;;;;;;;22.17;52.22;94952.38;5115816;28;20184;-70
2022/07/22 00:48:49;;;;;;;6.20;5.53;;;;;;;22.16;52.27;94952.81;5115544;28;20525;-70
2022/07/22 00:51:17;;;;;;;5.72;5.18;;;;;;;22.10;52.29;94958.91;5098244;28;20184;-70
2022/07/22 00:53:45;;;;;;;5.57;5.07;;;;;;;22.00;52.20;94962.69;5114600;28;20356;-70
2022/07/22 00:56:12;;;;;;;6.93;5.15;;;;;;;21.92;52.63;94957.66;5115604;28;20194;-70
2022/07/22 00:58:39;;;;;;;8.88;5.50;;;;;;;21.87;52.70;94968.16;5115349;28;20559;-70
2022/07/22 01:01:07;;;;;;;5.75;4.90;;;;;;;21.87;52.87;94959.72;5114743;28;20198;-70
2022/07/22 01:03:34;;;;;;;7.93;4.93;;;;;;;21.87;52.43;94959.72;5114269;28;20220;-70
2022/07/22 01:06:01;;;;;;;6.25;5.18;;;;;;;21.87;52.74;94954.13;5115319;28;20654;-70
2022/07/22 01:08:28;;;;;;;5.45;4.82;;;;;;;21.80;52.91;94951.44;5115329;28;20196;-70
2022/07/22 01:10:55;;;;;;;6.43;5.10;;;;;;;21.82;52.96;94954.63;5114649;28;20198;-70
2022/07/22 01:13:22;;;;;;;7.47;5.30;;;;;;;21.84;52.78;94948.56;5115198;28;20191;-69
2022/07/22 01:15:48;;;;;;;7.35;5.22;;;;;;;21.87;53.29;94954.13;5115605;28;20187;-70
2022/07/22 01:18:17;;;;;;;6.20;5.57;;;;;;;21.86;53.02;94952.53;5115460;28;20208;-70
2022/07/22 01:20:45;;;;;;;5.60;5.07;;;;;;;21.84;53.02;94959.81;5115501;28;20202;-69
2022/07/22 01:23:11;;;;;;;6.45;5.38;;;;;;;21.79;53.21;94955.47;5097203;28;20199;-69
2022/07/22 01:25:38;;;;;;;5.93;5.32;;;;;;;21.72;53.66;94952.81;5114341;28;20229;-69
2022/07/22 01:28:05;;;;;;;6.25;5.25;;;;;;;21.71;53.96;94958.81;5114740;28;20198;-69
2022/07/22 01:30:32;;;;;;;6.18;5.13;;;;;;;21.71;53.93;94958.81;5119056;28;20184;-69
2022/07/22 01:32:59;;;;;;;5.32;4.82;;;;;;;21.66;54.07;94959.31;5119214;28;20184;-70
2022/07/22 01:35:26;;;;;;;6.28;5.65;;;;;;;21.55;53.67;94960.28;5118008;28;20518;-69
2022/07/22 01:37:54;;;;;;;7.68;5.35;;;;;;;21.47;54.03;94956.03;5119139;28;20183;-69
2022/07/22 01:40:21;;;;;;;5.53;5.00;;;;;;;21.38;54.35;94961.38;5118491;28;20204;-70
2022/07/22 01:42:48;;;;;;;6.00;5.30;;;;;;;21.39;54.46;94965.78;5119208;28;20176;-69
2022/07/22 01:45:15;;;;;;;5.32;4.72;;;;;;;21.37;54.48;94957.00;5118004;28;20211;-69
2022/07/22 01:47:42;;;;;;;5.70;5.00;;;;;;;21.38;54.16;94962.16;5117793;28;20214;-69
2022/07/22 01:50:11;;;;;;;7.07;5.13;;;;;;;21.32;54.82;94963.84;5119203;28;20585;-69
2022/07/22 01:52:38;;;;;;;5.63;5.13;;;;;;;21.33;54.37;94964.66;5118692;28;20238;-69
2022/07/22 01:55:07;;;;;;;7.25;5.90;;;;;;;21.27;55.01;94967.13;5118427;28;20228;-69
2022/07/22 01:57:34;;;;;;;6.22;5.57;;;;;;;21.27;54.50;94967.13;5117701;28;20596;-70
2022/07/22 02:00:01;;;;;;;8.73;5.53;;;;;;;21.27;54.29;94961.53;5118838;28;20184;-70
2022/07/22 02:02:28;;;;;;;6.47;5.32;;;;;;;21.31;54.55;94964.28;5117577;28;20211;-70
2022/07/22 02:04:55;;;;;;;6.82;5.28;;;;;;;21.35;54.26;94970.63;5117761;28;20212;-70
2022/07/22 02:07:21;;;;;;;5.53;4.90;;;;;;;21.38;54.59;94970.59;5118422;28;20258;-70
2022/07/22 02:09:48;;;;;;;7.10;5.30;;;;;;;21.37;55.08;94974.63;5118499;28;20199;-70
2022/07/22 02:12:16;;;;;;;8.20;5.55;;;;;;;21.33;54.82;94985.09;5118668;28;20184;-69
2022/07/22 02:14:43;;;;;;;6.40;5.35;;;;;;;21.25;55.20;94980.00;5117760;28;20196;-69
2022/07/22 02:17:10;;;;;;;6.75;5.00;;;;;;;21.18;54.96;94978.09;5118557;28;20199;-70
2022/07/22 02:19:37;;;;;;;6.97;5.13;;;;;;;21.18;55.11;94980.13;5117685;28;20571;-69
2022/07/22 02:22:03;;;;;;;7.47;5.57;;;;;;;21.19;55.34;94982.50;5118332;28;20191;-69
2022/07/22 02:24:30;;;;;;;7.60;6.10;;;;;;;21.17;54.86;94982.13;5117456;28;20223;-71
2022/07/22 02:26:57;;;;;;;6.18;5.57;;;;;;;21.17;54.63;94990.56;5118238;28;20192;-70
2022/07/22 02:29:25;;;;;;;5.95;5.43;;;;;;;21.20;54.43;94981.25;5118533;28;20199;-70
2022/07/22 02:31:53;;;;;;;8.15;6.10;;;;;;;21.20;54.39;94989.69;5118437;28;20245;-70
2022/07/22 02:34:19;;;;;;;6.68;5.47;;;;;;;21.18;54.99;94980.13;5118231;28;20180;-70
2022/07/22 02:36:46;;;;;;;7.07;6.22;;;;;;;21.09;55.42;94987.03;5118231;28;20210;-71
2022/07/22 02:39:13;;;;;;;8.07;5.60;;;;;;;21.02;55.22;94980.75;5117779;28;20191;-71
2022/07/22 02:41:40;;;;;;;7.22;5.90;;;;;;;20.98;55.67;94983.59;5118033;28;20199;-70
2022/07/22 02:44:07;;;;;;;7.40;5.90;;;;;;;20.95;55.41;94976.03;5117681;28;20211;-70
2022/07/22 02:46:36;;;;;;;7.03;5.32;;;;;;;20.91;55.28;94973.28;5116983;28;20203;-70
2022/07/22 02:49:04;;;;;;;7.38;5.45;;;;;;;20.87;55.25;94982.94;5117940;28;20195;-70
2022/07/22 02:51:31;;;;;;;5.95;5.35;;;;;;;20.81;55.70;94981.84;5118210;28;20591;-70
2022/07/22 02:53:58;;;;;;;6.70;5.95;;;;;;;20.79;55.86;94982.25;5117354;28;20235;-70
2022/07/22 02:56:25;;;;;;;8.90;5.68;;;;;;;20.80;55.86;94980.25;5116920;28;20199;-71
2022/07/22 02:58:52;;;;;;;7.35;6.05;;;;;;;20.78;55.54;94983.47;5116726;28;20195;-70
2022/07/22 03:01:20;;;;;;;7.40;5.78;;;;;;;20.76;55.93;94976.69;5117256;28;20183;-70
2022/07/22 03:03:48;;;;;;;11.48;6.35;;;;;;;20.72;55.93;94971.16;5117051;28;20199;-70
2022/07/22 03:06:15;;;;;;;7.53;5.75;;;;;;;20.73;56.08;94983.94;5116418;28;20211;-70
2022/07/22 03:08:42;;;;;;;9.18;6.70;;;;;;;20.73;56.20;94972.72;5116749;28;20188;-70
2022/07/22 03:11:09;;;;;;;7.10;6.35;;;;;;;20.72;56.29;94978.75;5117193;28;20203;-70
2022/07/22 03:13:36;;;;;;;6.95;6.00;;;;;;;20.71;56.22;94977.19;5116703;28;20187;-70
2022/07/22 03:16:03;;;;;;;8.88;6.07;;;;;;;20.68;56.49;94976.78;5117251;28;20187;-70
2022/07/22 03:18:29;;;;;;;10.55;6.28;;;;;;;20.64;56.48;94986.47;5116557;28;20541;-70
2022/07/22 03:20:58;;;;;;;8.15;6.05;;;;;;;20.59;56.49;94984.94;5116520;28;20180;-70
2022/07/22 03:23:24;;;;;;;7.50;6.10;;;;;;;20.57;56.47;94984.56;5116106;28;20206;-70
2022/07/22 03:25:51;;;;;;;8.73;6.00;;;;;;;20.58;56.35;94976.94;5116521;28;20223;-70
2022/07/22 03:28:18;;;;;;;7.82;6.22;;;;;;;20.55;56.77;94984.19;5116987;28;20183;-69
2022/07/22 03:30:45;;;;;;;8.50;6.38;;;;;;;20.56;56.39;94979.38;5117025;28;20188;-69
2022/07/22 03:33:11;;;;;;;7.88;6.53;;;;;;;20.61;56.67;94985.28;5116144;28;20195;-70
2022/07/22 03:35:38;;;;;;;9.77;6.90;;;;;;;20.63;56.78;94984.91;5115970;28;20207;-71
2022/07/22 03:38:06;;;;;;;7.18;6.20;;;;;;;20.63;56.66;94982.88;5116049;28;20196;-71
2022/07/22 03:40:33;;;;;;;8.10;6.15;;;;;;;20.58;57.26;94988.94;5117012;28;20176;-71
2022/07/22 03:43:00;;;;;;;10.15;7.35;;;;;;;20.53;56.98;94991.41;5115604;28;20290;-70
2022/07/22 03:45:27;;;;;;;8.05;6.90;;;;;;;20.51;56.80;94997.44;5116842;28;20219;-70
2022/07/22 03:47:54;;;;;;;10.10;6.22;;;;;;;20.48;57.42;94995.47;5115999;28;20220;-70
2022/07/22 03:50:21;;;;;;;8.57;6.38;;;;;;;20.48;56.81;94997.44;5116815;28;20184;-70
2022/07/22 03:52:48;;;;;;;10.35;6.80;;;;;;;20.46;57.49;94999.88;5115794;28;20207;-70
2022/07/22 03:55:16;;;;;;;8.10;7.25;;;;;;;20.45;57.38;95004.69;5116551;28;20219;-70
2022/07/22 03:57:43;;;;;;;7.38;6.68;;;;;;;20.47;57.11;95007.06;5115897;28;20204;-70
2022/07/22 04:00:10;;;;;;;10.75;6.90;;;;;;;20.49;57.02;95013.06;5115640;28;20595;-70
2022/07/22 04:02:37;;;;;;;9.52;7.32;;;;;;;20.50;57.12;95003.47;5115713;28;20207;-70
2022/07/22 04:05:05;;;;;;;9.32;7.20;;;;;;;20.49;57.07;95007.47;5116385;28;20208;-70
2022/07/22 04:07:32;;;;;;;8.00;6.90;;;;;;;20.47;57.08;95015.47;5115755;28;20204;-70
2022/07/22 04:10:04;;;;;;;9.13;7.03;;;;;;;20.48;57.00;95008.66;5115395;28;20203;-70
2022/07/22 04:12:34;;;;;;;9.65;7.03;;;;;;;20.44;57.52;95011.50;5116295;28;20188;-70
2022/07/22 04:15:01;;;;;;;7.60;6.45;;;;;;;20.45;56.85;95010.28;5115485;28;20208;-70
2022/07/22 04:17:27;;;;;;;7.45;6.35;;;;;;;20.47;55.88;95012.66;5116174;28;20188;-70
2022/07/22 04:19:54;;;;;;;6.95;6.35;;;;;;;20.46;56.13;95011.09;5116470;28;20187;-70
2022/07/22 04:22:21;;;;;;;7.50;6.43;;;;;;;20.50;55.91;95020.28;5115211;28;20188;-70
2022/07/22 04:24:48;;;;;;;8.68;6.68;;;;;;;20.57;56.16;95009.78;5116111;28;20243;-70
2022/07/22 04:27:15;;;;;;;7.35;6.40;;;;;;;20.59;55.99;95012.97;5115702;28;20210;-70
2022/07/22 04:29:43;;;;;;;8.23;6.63;;;;;;;20.59;55.40;95017.78;5115482;28;20233;-70
2022/07/22 04:32:10;;;;;;;6.40;5.80;;;;;;;20.60;55.11;95020.16;5114989;28;20203;-70
2022/07/22 04:34:37;;;;;;;6.78;5.60;;;;;;;20.60;55.08;95027.75;5115018;28;20195;-70
2022/07/22 04:37:04;;;;;;;7.20;6.30;;;;;;;20.60;55.21;95027.75;5116323;28;20196;-70
2022/07/22 04:39:31;;;;;;;7.13;5.65;;;;;;;20.61;55.42;95030.13;5115885;28;20187;-70
2022/07/22 04:41:57;;;;;;;7.90;6.07;;;;;;;20.59;54.94;95031.78;5115871;28;20196;-70
2022/07/22 04:44:24;;;;;;;6.85;5.93;;;;;;;20.61;54.81;95034.94;5114879;28;20203;-71
2022/07/22 04:46:52;;;;;;;8.77;6.57;;;;;;;20.59;54.96;95034.59;5115626;28;20658;-71
2022/07/22 04:49:19;;;;;;;8.63;6.18;;;;;;;20.58;55.22;95042.16;5115262;28;20196;-71
2022/07/22 04:51:46;;;;;;;10.52;6.07;;;;;;;20.62;54.78;95042.91;5115454;28;20187;-71
2022/07/22 04:54:13;;;;;;;6.53;5.93;;;;;;;20.67;54.74;95042.47;5115970;28;20226;-71
2022/07/22 04:56:40;;;;;;;7.93;6.40;;;;;;;20.70;55.15;95037.22;5115540;28;20200;-73
2022/07/22 04:59:07;;;;;;;8.63;6.28;;;;;;;20.70;54.88;95040.03;5116284;28;20184;-72
2022/07/22 05:01:33;;;;;;;7.95;5.88;;;;;;;20.70;55.20;95040.84;5116404;28;20604;-73
2022/07/22 05:04:02;;;;;;;8.18;6.28;;;;;;;20.73;55.03;95039.97;5119796;28;20175;-72
2022/07/22 05:06:29;;;;;;;6.80;5.70;;;;;;;20.79;55.09;95052.31;5120870;28;20207;-72
2022/07/22 05:08:56;;;;;;;8.65;7.20;;;;;;;20.87;54.81;95039.00;5121659;28;20243;-74
2022/07/22 05:11:23;;;;;;;8.25;6.55;;;;;;;20.95;54.23;95040.50;5119871;28;20202;-74
2022/07/22 05:13:50;;;;;;;7.68;6.20;;;;;;;20.97;54.10;95048.50;5119975;28;20187;-74
2022/07/22 05:16:17;;;;;;;6.97;6.28;;;;;;;21.01;54.29;95046.44;5120269;28;20180;-71
2022/07/22 05:18:43;;;;;;;8.95;6.03;;;;;;;21.03;54.24;95046.84;5119927;28;20214;-70
2022/07/22 05:21:12;;;;;;;7.90;6.03;;;;;;;20.98;54.67;95048.06;5119629;28;20192;-70
2022/07/22 05:23:38;;;;;;;7.47;6.25;;;;;;;21.01;54.64;95052.06;5119137;28;20194;-70
2022/07/22 05:26:06;;;;;;;7.85;6.03;;;;;;;21.06;54.89;95041.19;5118751;28;20298;-70
2022/07/22 05:28:32;;;;;;;8.05;6.10;;;;;;;21.12;55.10;95050.69;5118801;28;20195;-70
2022/07/22 05:30:59;;;;;;;7.38;6.30;;;;;;;21.15;55.02;95049.06;5119638;28;20184;-71
2022/07/22 05:33:26;;;;;;;8.50;6.57;;;;;;;21.20;55.20;95059.00;5118845;28;20195;-70
2022/07/22 05:35:53;;;;;;;8.50;6.32;;;;;;;21.24;54.76;95048.53;5118838;28;20195;-71
2022/07/22 05:38:21;;;;;;;9.50;6.63;;;;;;;21.28;54.86;95050.09;5118889;28;20200;-70
2022/07/22 05:40:48;;;;;;;8.10;6.47;;;;;;;21.34;54.82;95054.00;5118726;28;20205;-70
2022/07/22 05:43:15;;;;;;;7.47;6.35;;;;;;;21.43;54.49;95053.50;5118031;28;20196;-70
2022/07/22 05:45:41;;;;;;;9.10;6.18;;;;;;;21.47;54.82;95057.03;5119544;28;20214;-70
2022/07/22 05:48:08;;;;;;;6.60;5.78;;;;;;;21.51;55.17;95049.34;5118210;28;20607;-70
2022/07/22 05:50:36;;;;;;;7.28;6.25;;;;;;;21.55;54.43;95057.72;5119016;28;20187;-70
2022/07/22 05:53:04;;;;;;;9.30;6.63;;;;;;;21.59;53.82;95058.47;5118768;28;20188;-70
2022/07/22 05:55:32;;;;;;;8.23;5.78;;;;;;;21.65;54.00;95048.34;5118736;28;20238;-70
2022/07/22 05:57:59;;;;;;;7.43;6.03;;;;;;;21.71;53.56;95049.44;5118371;28;20531;-70
2022/07/22 06:00:26;;;;;;;9.43;5.95;;;;;;;21.75;53.25;95046.56;5118777;28;20191;-70
2022/07/22 06:02:53;;;;;;;7.25;6.03;;;;;;;21.77;52.94;95049.75;5118241;28;20518;-70
2022/07/22 06:05:19;;;;;;;8.70;5.78;;;;;;;21.82;52.86;95052.06;5117637;28;20639;-70
2022/07/22 06:07:47;;;;;;;11.25;6.35;;;;;;;21.88;53.12;95048.34;5118394;28;20195;-70
2022/07/22 06:10:13;;;;;;;6.45;5.85;;;;;;;21.95;53.03;95044.63;5118796;28;20198;-70
2022/07/22 06:12:42;;;;;;;7.40;6.45;;;;;;;22.02;53.32;95041.69;5117969;28;20214;-70
2022/07/22 06:15:09;;;;;;;8.75;6.47;;;;;;;22.08;53.04;95037.19;5117677;28;20524;-70
2022/07/22 06:17:37;;;;;;;10.32;6.68;;;;;;;22.17;53.54;95042.25;5118435;28;20511;-68
2022/07/22 06:20:04;;;;;;;9.60;5.75;;;;;;;22.22;53.16;95038.97;5119125;28;20510;-68
2022/07/22 06:22:32;;;;;;;7.70;5.97;;;;;;;22.30;53.28;95039.63;5118651;28;20252;-69
2022/07/22 06:24:59;;;;;;;7.10;5.82;;;;;;;22.36;53.30;95040.72;5118221;28;20176;-72
2022/07/22 06:27:26;;;;;;;8.13;5.95;;;;;;;22.45;53.21;95042.97;5117692;28;20608;-72
2022/07/22 06:29:54;;;;;;;7.38;6.03;;;;;;;22.50;53.29;95046.06;5117656;28;20199;-71
2022/07/22 06:32:21;;;;;;;6.45;5.72;;;;;;;22.58;53.19;95050.31;5118233;28;20661;-71
2022/07/22 06:34:48;;;;;;;6.63;5.82;;;;;;;22.67;52.91;95046.94;5117002;28;20192;-71
2022/07/22 06:37:15;;;;;;;7.35;5.85;;;;;;;22.81;52.30;95052.28;5117110;28;20203;-71
2022/07/22 06:39:42;;;;;;;6.63;5.45;;;;;;;22.94;51.94;95043.22;5118453;28;20199;-71
2022/07/22 06:42:09;;;;;;;7.88;5.68;;;;;;;23.00;51.90;95047.91;5117727;28;20195;-71
2022/07/22 06:44:36;;;;;;;7.50;5.90;;;;;;;23.03;51.17;95043.44;5118537;28;20198;-72
2022/07/22 06:47:04;;;;;;;6.70;5.30;;;;;;;23.10;51.50;95054.53;5117421;28;20215;-71
2022/07/22 06:49:31;;;;;;;6.18;5.57;;;;;;;23.16;51.33;95047.13;5118432;28;20196;-72
2022/07/22 06:51:58;;;;;;;6.68;5.97;;;;;;;23.22;51.00;95048.22;5120182;28;20271;-71
2022/07/22 06:54:24;;;;;;;7.45;5.60;;;;;;;23.35;50.60;95039.91;5118248;28;20724;-71
2022/07/22 06:56:51;;;;;;;6.95;6.20;;;;;;;23.39;50.21;95045.47;5118383;28;20183;-72
2022/07/22 06:59:18;;;;;;;8.02;6.18;;;;;;;23.40;49.48;95042.19;5117740;28;20192;-71
2022/07/22 07:01:45;;;;;;;10.50;5.80;;;;;;;23.45;49.38;95044.47;5117215;28;20200;-72
2022/07/22 07:04:13;;;;;;;6.18;5.57;;;;;;;23.47;49.70;95038.44;5117803;28;20241;-71
2022/07/22 07:06:40;;;;;;;6.70;5.35;;;;;;;23.53;49.80;95043.09;5117849;28;20211;-71
2022/07/22 07:09:07;;;;;;;7.40;5.35;;;;;;;23.61;49.39;95040.91;5116525;28;20207;-71
2022/07/22 07:11:34;;;;;;;8.65;5.72;;;;;;;23.67;49.19;95046.81;5116794;28;20192;-71
2022/07/22 07:14:01;;;;;;;7.75;5.78;;;;;;;23.67;48.46;95049.63;5116583;28;20200;-71
2022/07/22 07:16:28;;;;;;;6.47;5.72;;;;;;;23.68;48.95;95046.41;5117492;28;20204;-71
2022/07/22 07:18:55;;;;;;;6.95;5.82;;;;;;;23.68;49.27;95046.41;5116836;28;20200;-70
2022/07/22 07:21:24;;;;;;;5.90;5.40;;;;;;;23.74;48.89;95050.25;5118312;28;20180;-71
2022/07/22 07:23:51;;;;;;;11.00;6.07;;;;;;;23.79;49.15;95048.97;5118032;28;20640;-71
2022/07/22 07:26:17;;;;;;;7.07;6.35;;;;;;;23.83;48.94;95052.47;5118220;28;20208;-71
2022/07/22 07:28:44;;;;;;;6.40;5.68;;;;;;;23.89;49.20;95041.47;5118461;28;20352;-71
2022/07/22 07:31:11;;;;;;;6.80;6.10;;;;;;;23.92;48.79;95040.56;5117260;28;20194;-70
2022/07/22 07:33:39;;;;;;;7.13;5.93;;;;;;;24.00;48.52;95050.44;5117825;28;20188;-71
2022/07/22 07:36:06;;;;;;;8.07;6.07;;;;;;;24.07;48.42;95044.63;5117295;28;20202;-71
2022/07/22 07:38:35;;;;;;;7.25;5.22;;;;;;;24.12;47.79;95044.09;5117729;28;20195;-71
2022/07/22 07:41:02;;;;;;;6.05;5.18;;;;;;;24.14;47.57;95043.66;5117579;28;20282;-71
2022/07/22 07:43:29;;;;;;;8.95;5.57;;;;;;;24.21;46.91;95041.44;5117151;28;20623;-71
2022/07/22 07:45:56;;;;;;;7.72;5.80;;;;;;;24.29;46.85;95039.22;5116917;28;20223;-71
2022/07/22 07:48:23;;;;;;;7.03;4.97;;;;;;;24.37;46.93;95045.47;5117736;28;20249;-70
2022/07/22 07:50:50;;;;;;;6.18;5.10;;;;;;;24.41;47.45;95041.34;5117446;28;20256;-71
2022/07/22 07:53:17;;;;;;;7.55;4.95;;;;;;;24.44;46.27;95051.75;5116952;28;20615;-71
2022/07/22 07:55:45;;;;;;;6.07;5.00;;;;;;;24.47;45.31;95048.03;5116616;28;20202;-71
2022/07/22 07:58:12;;;;;;;5.10;4.65;;;;;;;24.49;45.87;95044.75;5116666;28;20618;-71
2022/07/22 08:00:41;;;;;;;6.00;4.88;;;;;;;24.59;45.07;95048.53;5116899;28;20184;-70
2022/07/22 08:03:08;;;;;;;9.52;4.68;;;;;;;24.63;44.46;95040.78;5116729;28;20200;-70
2022/07/22 08:05:35;;;;;;;6.60;6.00;;;;;;;24.64;45.24;95045.94;5116883;28;20184;-71
2022/07/22 08:08:03;;;;;;;5.70;5.20;;;;;;;24.68;44.45;95049.47;5116295;28;20256;-71
2022/07/22 08:10:30;;;;;;;5.55;5.03;;;;;;;24.76;44.16;95050.03;5117552;28;20290;-70
2022/07/22 08:12:59;;;;;;;6.28;5.20;;;;;;;24.78;45.19;95047.59;5117114;28;20184;-70
2022/07/22 08:15:26;;;;;;;6.88;5.07;;;;;;;24.84;43.81;95045.81;5116662;28;20213;-71
2022/07/22 08:17:54;;;;;;;5.63;5.07;;;;;;;24.94;42.10;95049.53;5115926;28;20199;-71
2022/07/22 08:20:21;;;;;;;5.80;4.40;;;;;;;25.05;41.72;95050.03;5116346;28;20179;-71
2022/07/22 08:22:49;;;;;;;5.45;4.90;;;;;;;25.11;41.48;95053.13;5115758;28;20196;-71
2022/07/22 08:25:16;;;;;;;6.00;4.55;;;;;;;25.17;41.38;95057.75;5115655;28;20207;-71
2022/07/22 08:27:43;;;;;;;5.43;4.50;;;;;;;25.21;42.26;95049.19;5116447;28;20211;-71
2022/07/22 08:30:13;;;;;;;5.95;4.95;;;;;;;25.27;41.87;95050.19;5116024;28;20203;-71
2022/07/22 08:32:40;;;;;;;5.10;4.35;;;;;;;25.33;42.38;95051.22;5116498;28;20210;-71
2022/07/22 08:35:10;;;;;;;5.43;4.93;;;;;;;25.45;41.16;95058.13;5115623;28;20203;-71
2022/07/22 08:37:37;;;;;;;7.57;4.90;;;;;;;25.54;42.46;95052.63;5115686;28;20521;-71
2022/07/22 08:40:06;;;;;;;4.95;4.45;;;;;;;25.63;41.38;95049.88;5116163;28;20203;-71
2022/07/22 08:42:33;;;;;;;5.95;4.60;;;;;;;25.77;42.00;95048.66;5116214;28;20203;-70
2022/07/22 08:45:00;;;;;;;6.38;5.10;;;;;;;25.77;42.61;95056.34;5116186;28;20187;-70
2022/07/22 08:47:29;;;;;;;5.18;4.68;;;;;;;25.86;41.76;95045.97;5115820;28;20252;-70
2022/07/22 08:49:55;;;;;;;5.05;4.60;;;;;;;25.95;40.59;95041.66;5116918;28;20203;-70
2022/07/22 08:52:22;;;;;;;6.55;4.57;;;;;;;25.96;41.50;95043.25;5116597;28;20187;-70
2022/07/22 08:54:49;;;;;;;5.85;5.00;;;;;;;25.93;42.25;95051.41;5115093;28;20224;-71
2022/07/22 08:57:16;;;;;;;5.13;4.60;;;;;;;26.00;41.94;95055.22;5115947;28;20596;-70
2022/07/22 08:59:53;;;;;;;5.03;4.53;;;;;;;26.10;41.50;95062.53;5115540;28;20207;-71
2022/07/22 09:02:20;;;;;;;7.22;4.70;;;;;;;26.14;41.03;95054.72;5115580;28;20183;-71
2022/07/22 09:04:54;;;;;;;6.50;4.85;;;;;;;26.22;40.73;95050.44;5115125;28;20195;-70
2022/07/22 09:07:28;;;;;;;5.03;4.57;;;;;;;26.32;41.73;95051.31;5115736;28;20216;-71
2022/07/22 09:09:55;;;;;;;5.57;4.85;;;;;;;26.36;41.35;95054.78;5117632;28;20184;-71
2022/07/22 09:12:23;;;;;;;5.53;4.75;;;;;;;26.47;40.80;95052.44;5118240;28;20168;-70
2022/07/22 09:14:53;;;;;;;5.03;4.53;;;;;;;26.55;42.13;95053.78;5117173;28;20184;-71
2022/07/22 09:17:27;;;;;;;5.32;4.82;;;;;;;26.71;40.97;95057.66;5116670;28;20256;-71
2022/07/22 09:19:56;;;;;;;5.00;4.50;;;;;;;26.82;41.40;95055.22;5116681;28;20190;-71
2022/07/22 09:22:39;;;;;;;6.88;5.53;;;;;;;26.98;39.10;95059.91;5115948;28;20196;-71
2022/07/22 09:25:27;;;;;;;6.45;5.10;;;;;;;27.06;40.81;95049.91;5117237;28;20191;-71
2022/07/22 09:27:56;;;;;;;7.38;4.78;;;;;;;27.19;39.89;95049.84;5115662;28;20215;-70
2022/07/22 09:30:24;;;;;;;5.65;4.97;;;;;;;27.23;39.92;95054.13;5114576;28;20202;-70
2022/07/22 09:32:52;;;;;;;6.30;4.85;;;;;;;27.42;37.50;95042.94;5114574;28;20196;-70
2022/07/22 09:35:20;;;;;;;5.43;4.93;;;;;;;27.66;37.36;95046.81;5115824;28;20188;-70
2022/07/22 09:37:49;;;;;;;6.22;5.07;;;;;;;27.70;37.77;95041.00;5115841;28;20204;-70
2022/07/22 09:40:18;;;;;;;6.38;4.70;;;;;;;27.76;41.33;95047.69;5114913;28;20610;-70
2022/07/22 09:42:46;;;;;;;8.23;5.30;;;;;;;27.84;37.46;95038.41;5115637;28;20188;-70
2022/07/22 09:45:13;;;;;;;6.32;5.05;;;;;;;27.89;36.58;95041.88;5115605;28;20252;-70
2022/07/22 09:47:42;;;;;;;5.05;4.60;;;;;;;28.00;39.01;95039.44;5114304;28;20219;-70
2022/07/22 09:50:16;;;;;;;5.38;4.70;;;;;;;28.09;36.94;95042.28;5116955;28;20188;-71
2022/07/22 09:52:45;;;;;;;6.85;5.13;;;;;;;28.03;36.81;95039.28;5118370;28;20203;-70
2022/07/22 09:55:15;;;;;;;5.30;4.90;;;;;;;28.06;37.22;95035.47;5119772;28;20235;-70
2022/07/22 09:57:42;;;;;;;5.15;4.68;;;;;;;28.03;39.39;95032.78;5119642;28;20184;-70
2022/07/22 10:00:09;;;;;;;5.07;4.63;;;;;;;28.02;38.62;95034.84;5119325;28;20196;-70
2022/07/22 10:02:41;;;;;;;5.90;5.30;;;;;;;27.97;38.18;95032.63;5119560;28;20196;-70
2022/07/22 10:05:09;;;;;;;8.13;5.63;;;;;;;27.99;36.38;95029.31;5118193;28;20207;-70
2022/07/22 10:07:37;;;;;;;5.82;5.25;;;;;;;28.14;36.76;95033.13;5118874;28;20215;-71
2022/07/22 10:10:07;;;;;;;5.50;5.00;;;;;;;28.28;36.01;95024.03;5119218;28;20231;-70
2022/07/22 10:12:34;;;;;;;6.07;5.07;;;;;;;28.37;36.58;95019.66;5118636;28;20192;-70
2022/07/22 10:15:02;;;;;;;7.35;4.60;;;;;;;28.44;36.19;95022.22;5119236;28;20199;-71
2022/07/22 10:17:29;;;;;;;6.25;4.60;;;;;;;28.46;35.81;95019.69;5119470;28;20199;-71
2022/07/22 10:19:55;;;;;;;5.57;4.50;;;;;;;28.45;34.80;95018.09;5118558;28;20192;-71
2022/07/22 10:22:50;;;;;;;5.70;4.85;;;;;;;28.56;36.34;95018.44;5118663;28;20198;-70
2022/07/22 10:25:19;;;;;;;5.25;4.78;;;;;;;28.53;35.45;95013.69;5119496;28;20184;-70
2022/07/22 10:27:47;;;;;;;5.70;4.32;;;;;;;28.64;34.92;95011.16;5118015;28;20407;-70
2022/07/22 10:30:18;;;;;;;4.60;4.20;;;;;;;28.78;32.63;95016.22;5119446;28;20184;-71
2022/07/22 10:32:45;;;;;;;5.45;4.95;;;;;;;28.77;34.74;95016.69;5119351;28;20244;-71
2022/07/22 10:35:25;;;;;;;5.72;4.50;;;;;;;28.71;32.43;95013.69;5119080;28;20173;-71
2022/07/22 10:38:00;;;;;;;5.35;4.85;;;;;;;28.71;34.50;95016.53;5119034;28;20263;-70
2022/07/22 10:40:29;;;;;;;4.85;4.18;;;;;;;28.75;34.03;95005.81;5118205;28;20207;-70
2022/07/22 10:43:12;;;;;;;5.47;4.25;;;;;;;28.83;33.41;95005.47;5118849;28;20518;-71
2022/07/22 10:45:46;;;;;;;6.38;5.03;;;;;;;28.90;34.37;95003.09;5118817;28;20185;-71
2022/07/22 10:48:14;;;;;;;5.72;4.50;;;;;;;28.93;34.87;95007.06;5118134;28;20275;-71
2022/07/22 10:51:08;;;;;;;5.13;4.60;;;;;;;29.01;34.99;95002.66;5118833;28;20184;-70
2022/07/22 10:53:44;;;;;;;6.70;5.28;;;;;;;29.18;33.15;95003.88;5116349;28;20237;-70
2022/07/22 10:56:18;;;;;;;5.65;4.70;;;;;;;29.22;33.73;95012.25;5118690;28;20180;-71
2022/07/22 10:58:53;;;;;;;5.15;4.47;;;;;;;29.22;33.81;95007.34;5117790;28;20194;-71
2022/07/22 11:01:24;;;;;;;6.50;4.95;;;;;;;29.19;33.69;94999.00;5117689;28;20198;-71
2022/07/22 11:03:51;;;;;;;5.90;4.70;;;;;;;29.38;32.65;95003.38;5118671;28;20191;-70
2022/07/22 11:06:27;;;;;;;5.80;4.82;;;;;;;29.46;31.92;94995.31;5117668;28;20192;-70
2022/07/22 11:08:56;;;;;;;5.68;4.63;;;;;;;29.54;32.13;94990.06;5116765;28;20218;-70
2022/07/22 11:11:37;;;;;;;7.93;4.80;;;;;;;29.65;33.74;94996.03;5118053;28;20180;-70
2022/07/22 11:14:05;;;;;;;5.05;4.43;;;;;;;29.78;32.71;94990.94;5117211;28;20252;-71
2022/07/22 11:16:31;;;;;;;7.15;4.90;;;;;;;29.90;32.65;94991.97;5117768;28;20230;-70
2022/07/22 11:18:59;;;;;;;4.78;4.25;;;;;;;29.93;32.26;94993.84;5117757;28;20196;-71
2022/07/22 11:21:28;;;;;;;5.57;4.97;;;;;;;29.94;32.65;94987.69;5117882;28;20192;-71
2022/07/22 11:23:57;;;;;;;4.88;3.95;;;;;;;30.06;33.18;94991.56;5118033;28;20247;-71
2022/07/22 11:26:26;;;;;;;5.68;5.07;;;;;;;29.96;32.26;94993.69;5117536;28;20603;-71
2022/07/22 11:28:56;;;;;;;5.35;4.72;;;;;;;29.90;32.77;94992.75;5117134;28;20204;-70
2022/07/22 11:31:22;;;;;;;6.60;4.43;;;;;;;29.85;32.04;94995.47;5116441;28;20199;-70
2022/07/22 11:33:49;;;;;;;5.22;4.50;;;;;;;29.68;32.52;94987.34;5117840;28;20195;-71
2022/07/22 11:36:16;;;;;;;6.07;4.57;;;;;;;29.86;30.36;94980.78;5117350;28;20199;-71
2022/07/22 11:38:45;;;;;;;4.65;4.20;;;;;;;29.99;31.47;94989.06;5116877;28;20211;-70